sensor_id;sensor_type;location;lat;lon;timestamp;temperature;humidity
23827;DHT22;12094;50.822;4.376;2023-11-21T00:00:36;10.60;99.90
23827;DHT22;12094;50.822;4.376;2023-11-21T00:03:03;10.70;99.90
23827;DHT22;12094;50.822;4.376;2023-11-21T00:05:31;10.60;99.90
23827;DHT22;12094;50.822;4.376;2023-11-21T00:07:58;10.60;99.90
23827;DHT22;12094;50.822;4.376;2023-11-21T00:10:25;10.50;99.90
23827;DHT22;12094;50.822;4.376;2023-11-21T00:12:52;10.50;99.90
23827;DHT22;12094;50.822;4.376;2023-11-21T00:15:22;10.40;99.90
23827;DHT22;12094;50.822;4.376;2023-11-21T00:17:51;10.30;99.90
23827;DHT22;12094;50.822;4.376;2023-11-21T00:20:18;10.30;99.90
23827;DHT22;12094;50.822;4.376;2023-11-21T00:22:45;10.20;99.90
23827;DHT22;12094;50.822;4.376;2023-11-21T00:25:14;10.20;99.90
23827;DHT22;12094;50.822;4.376;2023-11-21T00:27:43;10.10;99.90
23827;DHT22;12094;50.822;4.376;2023-11-21T00:30:11;10.10;99.90
23827;DHT22;12094;50.822;4.376;2023-11-21T00:32:38;10.00;99.90
23827;DHT22;12094;50.822;4.376;2023-11-21T00:35:05;10.00;99.90
23827;DHT22;12094;50.822;4.376;2023-11-21T00:37:32;10.10;99.90
23827;DHT22;12094;50.822;4.376;2023-11-21T00:40:00;10.00;99.90
23827;DHT22;12094;50.822;4.376;2023-11-21T00:45:01;10.00;99.90
23827;DHT22;12094;50.822;4.376;2023-11-21T00:47:28;10.00;99.90
23827;DHT22;12094;50.822;4.376;2023-11-21T00:49:56;10.00;99.90
23827;DHT22;12094;50.822;4.376;2023-11-21T00:52:23;10.00;99.90
23827;DHT22;12094;50.822;4.376;2023-11-21T00:54:52;10.00;99.90
23827;DHT22;12094;50.822;4.376;2023-11-21T00:57:20;10.00;99.90
23827;DHT22;12094;50.822;4.376;2023-11-21T00:59:48;10.00;99.90
23827;DHT22;12094;50.822;4.376;2023-11-21T01:02:15;10.00;99.90
23827;DHT22;12094;50.822;4.376;2023-11-21T01:04:42;10.10;99.90
23827;DHT22;12094;50.822;4.376;2023-11-21T01:07:11;9.90;99.90
23827;DHT22;12094;50.822;4.376;2023-11-21T01:09:38;10.00;99.90
23827;DHT22;12094;50.822;4.376;2023-11-21T01:12:05;10.00;99.90
23827;DHT22;12094;50.822;4.376;2023-11-21T01:14:33;10.00;99.90
23827;DHT22;12094;50.822;4.376;2023-11-21T01:17:00;10.10;99.90
23827;DHT22;12094;50.822;4.376;2023-11-21T01:19:27;10.10;99.90
23827;DHT22;12094;50.822;4.376;2023-11-21T01:21:56;10.00;99.90
23827;DHT22;12094;50.822;4.376;2023-11-21T01:24:24;10.00;99.90
23827;DHT22;12094;50.822;4.376;2023-11-21T01:26:54;10.00;99.90
23827;DHT22;12094;50.822;4.376;2023-11-21T01:29:21;10.10;99.90
23827;DHT22;12094;50.822;4.376;2023-11-21T01:31:48;10.20;99.90
23827;DHT22;12094;50.822;4.376;2023-11-21T01:34:15;10.30;99.90
23827;DHT22;12094;50.822;4.376;2023-11-21T01:36:42;10.30;99.90
23827;DHT22;12094;50.822;4.376;2023-11-21T01:39:10;10.40;99.90
23827;DHT22;12094;50.822;4.376;2023-11-21T01:41:42;10.40;99.90
23827;DHT22;12094;50.822;4.376;2023-11-21T01:44:11;10.50;99.90
23827;DHT22;12094;50.822;4.376;2023-11-21T01:46:37;10.50;99.90
23827;DHT22;12094;50.822;4.376;2023-11-21T01:49:05;10.50;99.90
23827;DHT22;12094;50.822;4.376;2023-11-21T01:51:32;10.50;99.90
23827;DHT22;12094;50.822;4.376;2023-11-21T01:54:02;10.40;99.90
23827;DHT22;12094;50.822;4.376;2023-11-21T01:56:46;10.50;99.90
23827;DHT22;12094;50.822;4.376;2023-11-21T01:59:14;10.60;99.90
23827;DHT22;12094;50.822;4.376;2023-11-21T02:01:45;10.70;99.90
23827;DHT22;12094;50.822;4.376;2023-11-21T02:04:13;10.70;99.90
23827;DHT22;12094;50.822;4.376;2023-11-21T02:06:40;10.60;99.90
23827;DHT22;12094;50.822;4.376;2023-11-21T02:09:07;10.50;99.90
23827;DHT22;12094;50.822;4.376;2023-11-21T02:11:35;10.50;99.90
23827;DHT22;12094;50.822;4.376;2023-11-21T02:14:02;10.40;99.90
23827;DHT22;12094;50.822;4.376;2023-11-21T02:16:30;10.40;99.90
23827;DHT22;12094;50.822;4.376;2023-11-21T02:18:58;10.50;99.90
23827;DHT22;12094;50.822;4.376;2023-11-21T02:21:25;10.40;99.90
23827;DHT22;12094;50.822;4.376;2023-11-21T02:23:52;10.30;99.90
23827;DHT22;12094;50.822;4.376;2023-11-21T02:26:19;10.30;99.90
23827;DHT22;12094;50.822;4.376;2023-11-21T02:28:47;10.40;99.90
23827;DHT22;12094;50.822;4.376;2023-11-21T02:31:14;10.30;99.90
23827;DHT22;12094;50.822;4.376;2023-11-21T02:33:41;10.30;99.90
23827;DHT22;12094;50.822;4.376;2023-11-21T02:36:09;10.30;99.90
23827;DHT22;12094;50.822;4.376;2023-11-21T02:38:36;10.30;99.90
23827;DHT22;12094;50.822;4.376;2023-11-21T02:41:02;10.30;99.90
23827;DHT22;12094;50.822;4.376;2023-11-21T02:43:32;10.20;99.90
23827;DHT22;12094;50.822;4.376;2023-11-21T02:45:59;10.10;99.90
23827;DHT22;12094;50.822;4.376;2023-11-21T02:48:27;10.20;99.90
23827;DHT22;12094;50.822;4.376;2023-11-21T02:50:54;10.20;99.90
23827;DHT22;12094;50.822;4.376;2023-11-21T02:53:22;10.10;99.90
23827;DHT22;12094;50.822;4.376;2023-11-21T02:55:52;10.10;99.90
23827;DHT22;12094;50.822;4.376;2023-11-21T02:58:21;10.00;99.90
23827;DHT22;12094;50.822;4.376;2023-11-21T03:00:48;10.00;99.90
23827;DHT22;12094;50.822;4.376;2023-11-21T03:03:16;10.00;99.90
23827;DHT22;12094;50.822;4.376;2023-11-21T03:05:44;10.10;99.90
23827;DHT22;12094;50.822;4.376;2023-11-21T03:08:11;10.30;99.90
23827;DHT22;12094;50.822;4.376;2023-11-21T03:10:38;10.30;99.90
23827;DHT22;12094;50.822;4.376;2023-11-21T03:13:05;10.30;99.90
23827;DHT22;12094;50.822;4.376;2023-11-21T03:15:34;10.30;99.90
23827;DHT22;12094;50.822;4.376;2023-11-21T03:18:03;10.20;99.90
23827;DHT22;12094;50.822;4.376;2023-11-21T03:20:31;10.30;99.90
23827;DHT22;12094;50.822;4.376;2023-11-21T03:22:59;10.20;99.90
23827;DHT22;12094;50.822;4.376;2023-11-21T03:25:27;10.20;99.90
23827;DHT22;12094;50.822;4.376;2023-11-21T03:27:54;10.20;99.90
23827;DHT22;12094;50.822;4.376;2023-11-21T03:30:21;10.10;99.90
23827;DHT22;12094;50.822;4.376;2023-11-21T03:32:48;10.20;99.90
23827;DHT22;12094;50.822;4.376;2023-11-21T03:35:17;10.20;99.90
23827;DHT22;12094;50.822;4.376;2023-11-21T03:37:47;10.20;99.90
23827;DHT22;12094;50.822;4.376;2023-11-21T03:40:15;10.30;99.90
23827;DHT22;12094;50.822;4.376;2023-11-21T03:42:42;10.30;99.90
23827;DHT22;12094;50.822;4.376;2023-11-21T03:45:09;10.40;99.90
23827;DHT22;12094;50.822;4.376;2023-11-21T03:47:39;10.50;99.90
23827;DHT22;12094;50.822;4.376;2023-11-21T03:50:06;10.60;99.90
23827;DHT22;12094;50.822;4.376;2023-11-21T03:52:33;10.60;99.90
23827;DHT22;12094;50.822;4.376;2023-11-21T03:55:01;10.50;99.90
23827;DHT22;12094;50.822;4.376;2023-11-21T03:57:28;10.60;99.90
23827;DHT22;12094;50.822;4.376;2023-11-21T03:59:56;10.60;99.90
23827;DHT22;12094;50.822;4.376;2023-11-21T04:02:24;10.50;99.90
23827;DHT22;12094;50.822;4.376;2023-11-21T04:04:52;10.50;99.90
23827;DHT22;12094;50.822;4.376;2023-11-21T04:07:19;10.40;99.90
23827;DHT22;12094;50.822;4.376;2023-11-21T04:09:48;10.40;99.90
23827;DHT22;12094;50.822;4.376;2023-11-21T04:12:17;10.40;99.90
23827;DHT22;12094;50.822;4.376;2023-11-21T04:14:44;10.40;99.90
23827;DHT22;12094;50.822;4.376;2023-11-21T04:17:11;10.40;99.90
23827;DHT22;12094;50.822;4.376;2023-11-21T04:19:38;10.30;99.90
23827;DHT22;12094;50.822;4.376;2023-11-21T04:22:05;10.20;99.90
23827;DHT22;12094;50.822;4.376;2023-11-21T04:24:32;10.10;99.90
23827;DHT22;12094;50.822;4.376;2023-11-21T04:26:59;10.10;99.90
23827;DHT22;12094;50.822;4.376;2023-11-21T04:29:26;10.20;99.90
23827;DHT22;12094;50.822;4.376;2023-11-21T04:31:52;10.30;99.90
23827;DHT22;12094;50.822;4.376;2023-11-21T04:34:19;10.30;99.90
23827;DHT22;12094;50.822;4.376;2023-11-21T04:36:46;10.20;99.90
23827;DHT22;12094;50.822;4.376;2023-11-21T04:39:13;10.20;99.90
23827;DHT22;12094;50.822;4.376;2023-11-21T04:41:40;10.30;99.90
23827;DHT22;12094;50.822;4.376;2023-11-21T04:44:07;10.30;99.90
23827;DHT22;12094;50.822;4.376;2023-11-21T04:46:34;10.40;99.90
23827;DHT22;12094;50.822;4.376;2023-11-21T04:49:04;10.40;99.90
23827;DHT22;12094;50.822;4.376;2023-11-21T04:51:31;10.30;99.90
23827;DHT22;12094;50.822;4.376;2023-11-21T04:53:58;10.30;99.90
23827;DHT22;12094;50.822;4.376;2023-11-21T04:56:26;10.10;99.90
23827;DHT22;12094;50.822;4.376;2023-11-21T04:58:54;10.30;99.90
23827;DHT22;12094;50.822;4.376;2023-11-21T05:01:23;10.40;99.90
23827;DHT22;12094;50.822;4.376;2023-11-21T05:03:50;10.50;99.90
23827;DHT22;12094;50.822;4.376;2023-11-21T05:06:17;10.40;99.90
23827;DHT22;12094;50.822;4.376;2023-11-21T05:08:45;10.30;99.90
23827;DHT22;12094;50.822;4.376;2023-11-21T05:11:22;10.20;99.90
23827;DHT22;12094;50.822;4.376;2023-11-21T05:13:49;10.20;99.90
23827;DHT22;12094;50.822;4.376;2023-11-21T05:16:17;10.20;99.90
23827;DHT22;12094;50.822;4.376;2023-11-21T05:18:45;10.30;99.90
23827;DHT22;12094;50.822;4.376;2023-11-21T05:21:11;10.30;99.90
23827;DHT22;12094;50.822;4.376;2023-11-21T05:23:39;10.40;99.90
23827;DHT22;12094;50.822;4.376;2023-11-21T05:26:07;10.50;99.90
23827;DHT22;12094;50.822;4.376;2023-11-21T05:28:34;10.50;99.90
23827;DHT22;12094;50.822;4.376;2023-11-21T05:31:01;10.50;99.90
23827;DHT22;12094;50.822;4.376;2023-11-21T05:33:42;10.60;99.90
23827;DHT22;12094;50.822;4.376;2023-11-21T05:36:09;10.70;99.90
23827;DHT22;12094;50.822;4.376;2023-11-21T05:38:36;10.70;99.90
23827;DHT22;12094;50.822;4.376;2023-11-21T05:41:03;10.60;99.90
23827;DHT22;12094;50.822;4.376;2023-11-21T05:43:33;10.70;99.90
23827;DHT22;12094;50.822;4.376;2023-11-21T05:46:05;10.80;99.90
23827;DHT22;12094;50.822;4.376;2023-11-21T05:48:34;10.80;99.90
23827;DHT22;12094;50.822;4.376;2023-11-21T05:51:06;10.90;99.90
23827;DHT22;12094;50.822;4.376;2023-11-21T05:53:33;10.80;99.90
23827;DHT22;12094;50.822;4.376;2023-11-21T05:56:00;10.60;99.90
23827;DHT22;12094;50.822;4.376;2023-11-21T05:58:27;10.40;99.90
23827;DHT22;12094;50.822;4.376;2023-11-21T06:00:53;10.30;99.90
23827;DHT22;12094;50.822;4.376;2023-11-21T06:03:20;10.30;99.90
23827;DHT22;12094;50.822;4.376;2023-11-21T06:05:47;10.50;99.90
23827;DHT22;12094;50.822;4.376;2023-11-21T06:08:17;10.60;99.90
23827;DHT22;12094;50.822;4.376;2023-11-21T06:10:44;10.50;99.90
23827;DHT22;12094;50.822;4.376;2023-11-21T06:13:10;10.40;99.90
23827;DHT22;12094;50.822;4.376;2023-11-21T06:15:40;10.30;99.90
23827;DHT22;12094;50.822;4.376;2023-11-21T06:18:07;10.30;99.90
23827;DHT22;12094;50.822;4.376;2023-11-21T06:20:42;10.40;99.90
23827;DHT22;12094;50.822;4.376;2023-11-21T06:23:09;10.50;99.90
23827;DHT22;12094;50.822;4.376;2023-11-21T06:25:38;10.60;99.90
23827;DHT22;12094;50.822;4.376;2023-11-21T06:28:05;10.70;99.90
23827;DHT22;12094;50.822;4.376;2023-11-21T06:30:35;10.70;99.90
23827;DHT22;12094;50.822;4.376;2023-11-21T06:33:02;10.80;99.90
23827;DHT22;12094;50.822;4.376;2023-11-21T06:35:29;10.90;99.90
23827;DHT22;12094;50.822;4.376;2023-11-21T06:37:59;10.90;99.90
23827;DHT22;12094;50.822;4.376;2023-11-21T06:40:26;10.80;99.90
23827;DHT22;12094;50.822;4.376;2023-11-21T06:42:53;10.90;99.90
23827;DHT22;12094;50.822;4.376;2023-11-21T06:45:20;10.80;99.90
23827;DHT22;12094;50.822;4.376;2023-11-21T06:47:50;10.80;99.90
23827;DHT22;12094;50.822;4.376;2023-11-21T06:50:17;10.70;99.90
23827;DHT22;12094;50.822;4.376;2023-11-21T06:52:46;10.70;99.90
23827;DHT22;12094;50.822;4.376;2023-11-21T06:55:13;10.70;99.90
23827;DHT22;12094;50.822;4.376;2023-11-21T06:57:40;10.80;99.90
23827;DHT22;12094;50.822;4.376;2023-11-21T07:00:07;10.70;99.90
23827;DHT22;12094;50.822;4.376;2023-11-21T07:02:36;10.70;99.90
23827;DHT22;12094;50.822;4.376;2023-11-21T07:05:03;10.60;99.90
23827;DHT22;12094;50.822;4.376;2023-11-21T07:07:31;10.60;99.90
23827;DHT22;12094;50.822;4.376;2023-11-21T07:09:59;10.70;99.90
23827;DHT22;12094;50.822;4.376;2023-11-21T07:12:30;10.70;99.90
23827;DHT22;12094;50.822;4.376;2023-11-21T07:14:58;10.90;99.90
23827;DHT22;12094;50.822;4.376;2023-11-21T07:17:24;11.10;99.90
23827;DHT22;12094;50.822;4.376;2023-11-21T07:19:52;11.10;99.90
23827;DHT22;12094;50.822;4.376;2023-11-21T07:22:20;11.10;99.90
23827;DHT22;12094;50.822;4.376;2023-11-21T07:27:40;11.10;99.90
23827;DHT22;12094;50.822;4.376;2023-11-21T07:30:08;11.10;99.90
23827;DHT22;12094;50.822;4.376;2023-11-21T07:32:37;11.00;99.90
23827;DHT22;12094;50.822;4.376;2023-11-21T07:35:08;11.10;99.90
23827;DHT22;12094;50.822;4.376;2023-11-21T07:37:35;11.10;99.90
23827;DHT22;12094;50.822;4.376;2023-11-21T07:40:03;11.10;99.90
23827;DHT22;12094;50.822;4.376;2023-11-21T07:42:34;11.10;99.90
23827;DHT22;12094;50.822;4.376;2023-11-21T07:45:05;11.20;99.90
23827;DHT22;12094;50.822;4.376;2023-11-21T07:47:33;11.20;99.90
23827;DHT22;12094;50.822;4.376;2023-11-21T07:50:02;11.10;99.90
23827;DHT22;12094;50.822;4.376;2023-11-21T07:52:31;11.00;99.90
23827;DHT22;12094;50.822;4.376;2023-11-21T07:54:57;11.10;99.90
23827;DHT22;12094;50.822;4.376;2023-11-21T07:57:24;11.20;99.90
23827;DHT22;12094;50.822;4.376;2023-11-21T07:59:51;11.10;99.90
23827;DHT22;12094;50.822;4.376;2023-11-21T08:02:20;11.10;99.90
23827;DHT22;12094;50.822;4.376;2023-11-21T08:04:47;11.10;99.90
23827;DHT22;12094;50.822;4.376;2023-11-21T08:07:17;11.20;99.90
23827;DHT22;12094;50.822;4.376;2023-11-21T08:09:44;11.10;99.90
23827;DHT22;12094;50.822;4.376;2023-11-21T08:12:18;11.10;99.90
23827;DHT22;12094;50.822;4.376;2023-11-21T08:14:48;11.10;99.90
23827;DHT22;12094;50.822;4.376;2023-11-21T08:17:18;11.10;99.90
23827;DHT22;12094;50.822;4.376;2023-11-21T08:19:47;11.10;99.90
23827;DHT22;12094;50.822;4.376;2023-11-21T08:22:16;11.20;99.90
23827;DHT22;12094;50.822;4.376;2023-11-21T08:24:44;11.30;99.90
23827;DHT22;12094;50.822;4.376;2023-11-21T08:27:13;11.20;99.90
23827;DHT22;12094;50.822;4.376;2023-11-21T08:29:42;11.20;99.90
23827;DHT22;12094;50.822;4.376;2023-11-21T08:32:10;11.20;99.90
23827;DHT22;12094;50.822;4.376;2023-11-21T08:34:39;11.20;99.90
23827;DHT22;12094;50.822;4.376;2023-11-21T08:37:10;11.30;99.90
23827;DHT22;12094;50.822;4.376;2023-11-21T08:39:37;11.40;99.90
23827;DHT22;12094;50.822;4.376;2023-11-21T08:42:04;11.40;99.90
23827;DHT22;12094;50.822;4.376;2023-11-21T08:44:31;11.40;99.90
23827;DHT22;12094;50.822;4.376;2023-11-21T08:46:58;11.50;99.90
23827;DHT22;12094;50.822;4.376;2023-11-21T08:49:25;11.60;99.90
23827;DHT22;12094;50.822;4.376;2023-11-21T08:51:54;11.60;99.90
23827;DHT22;12094;50.822;4.376;2023-11-21T08:54:21;11.60;99.90
23827;DHT22;12094;50.822;4.376;2023-11-21T08:56:48;11.70;99.90
23827;DHT22;12094;50.822;4.376;2023-11-21T08:59:16;11.60;99.90
23827;DHT22;12094;50.822;4.376;2023-11-21T09:01:44;11.30;99.90
23827;DHT22;12094;50.822;4.376;2023-11-21T09:04:11;11.20;99.90
23827;DHT22;12094;50.822;4.376;2023-11-21T09:06:39;11.10;99.90
23827;DHT22;12094;50.822;4.376;2023-11-21T09:09:06;11.10;99.90
23827;DHT22;12094;50.822;4.376;2023-11-21T09:11:34;11.00;99.90
23827;DHT22;12094;50.822;4.376;2023-11-21T09:14:02;11.10;99.90
23827;DHT22;12094;50.822;4.376;2023-11-21T09:16:33;11.10;99.90
23827;DHT22;12094;50.822;4.376;2023-11-21T09:19:00;11.00;99.90
23827;DHT22;12094;50.822;4.376;2023-11-21T09:21:28;11.10;99.90
23827;DHT22;12094;50.822;4.376;2023-11-21T09:23:55;11.20;99.90
23827;DHT22;12094;50.822;4.376;2023-11-21T09:26:22;11.30;99.90
23827;DHT22;12094;50.822;4.376;2023-11-21T09:28:51;11.30;99.90
23827;DHT22;12094;50.822;4.376;2023-11-21T09:31:20;11.20;99.90
23827;DHT22;12094;50.822;4.376;2023-11-21T09:33:49;11.00;99.90
23827;DHT22;12094;50.822;4.376;2023-11-21T09:36:16;11.10;99.90
23827;DHT22;12094;50.822;4.376;2023-11-21T09:38:43;11.30;99.90
23827;DHT22;12094;50.822;4.376;2023-11-21T09:41:21;11.40;99.90
23827;DHT22;12094;50.822;4.376;2023-11-21T09:43:51;11.50;99.90
23827;DHT22;12094;50.822;4.376;2023-11-21T09:46:20;11.60;99.90
23827;DHT22;12094;50.822;4.376;2023-11-21T09:48:50;11.40;99.90
23827;DHT22;12094;50.822;4.376;2023-11-21T09:51:19;11.50;99.90
23827;DHT22;12094;50.822;4.376;2023-11-21T09:53:47;11.50;99.90
23827;DHT22;12094;50.822;4.376;2023-11-21T09:56:16;11.70;99.90
23827;DHT22;12094;50.822;4.376;2023-11-21T09:58:45;11.80;99.90
23827;DHT22;12094;50.822;4.376;2023-11-21T10:01:14;11.80;99.90
23827;DHT22;12094;50.822;4.376;2023-11-21T10:03:43;11.80;99.90
23827;DHT22;12094;50.822;4.376;2023-11-21T10:06:10;11.80;99.90
23827;DHT22;12094;50.822;4.376;2023-11-21T10:08:41;11.90;99.90
23827;DHT22;12094;50.822;4.376;2023-11-21T10:11:19;12.10;99.90
23827;DHT22;12094;50.822;4.376;2023-11-21T10:13:46;12.10;99.90
23827;DHT22;12094;50.822;4.376;2023-11-21T10:16:15;11.90;99.90
23827;DHT22;12094;50.822;4.376;2023-11-21T10:18:46;11.90;99.90
23827;DHT22;12094;50.822;4.376;2023-11-21T10:21:14;11.80;99.90
23827;DHT22;12094;50.822;4.376;2023-11-21T10:23:41;11.90;99.90
23827;DHT22;12094;50.822;4.376;2023-11-21T10:26:11;11.90;99.90
23827;DHT22;12094;50.822;4.376;2023-11-21T10:29:00;12.00;99.90
23827;DHT22;12094;50.822;4.376;2023-11-21T10:31:27;11.90;99.90
23827;DHT22;12094;50.822;4.376;2023-11-21T10:33:54;11.90;99.90
23827;DHT22;12094;50.822;4.376;2023-11-21T10:36:27;12.00;99.90
23827;DHT22;12094;50.822;4.376;2023-11-21T10:38:55;12.00;99.90
23827;DHT22;12094;50.822;4.376;2023-11-21T10:41:24;12.00;99.90
23827;DHT22;12094;50.822;4.376;2023-11-21T10:43:52;12.20;99.90
23827;DHT22;12094;50.822;4.376;2023-11-21T10:46:20;12.20;99.90
23827;DHT22;12094;50.822;4.376;2023-11-21T10:48:51;12.30;99.90
23827;DHT22;12094;50.822;4.376;2023-11-21T10:51:20;12.30;99.90
23827;DHT22;12094;50.822;4.376;2023-11-21T10:53:53;12.40;99.90
23827;DHT22;12094;50.822;4.376;2023-11-21T10:56:22;12.60;99.90
23827;DHT22;12094;50.822;4.376;2023-11-21T10:58:50;12.60;99.90
23827;DHT22;12094;50.822;4.376;2023-11-21T11:01:22;12.50;99.90
23827;DHT22;12094;50.822;4.376;2023-11-21T11:03:51;12.60;99.90
23827;DHT22;12094;50.822;4.376;2023-11-21T11:06:21;12.70;99.90
23827;DHT22;12094;50.822;4.376;2023-11-21T11:08:48;12.60;99.90
23827;DHT22;12094;50.822;4.376;2023-11-21T11:11:17;12.70;99.90
23827;DHT22;12094;50.822;4.376;2023-11-21T11:13:45;12.80;99.90
23827;DHT22;12094;50.822;4.376;2023-11-21T11:16:16;12.70;99.90
23827;DHT22;12094;50.822;4.376;2023-11-21T11:18:44;12.80;99.90
23827;DHT22;12094;50.822;4.376;2023-11-21T11:21:17;12.90;99.90
23827;DHT22;12094;50.822;4.376;2023-11-21T11:37:02;12.90;99.90
23827;DHT22;12094;50.822;4.376;2023-11-21T11:39:41;13.00;99.90
23827;DHT22;12094;50.822;4.376;2023-11-21T11:42:14;13.00;99.90
23827;DHT22;12094;50.822;4.376;2023-11-21T11:47:13;13.20;99.90
23827;DHT22;12094;50.822;4.376;2023-11-21T11:49:59;13.00;99.90
23827;DHT22;12094;50.822;4.376;2023-11-21T11:52:33;13.00;99.90
23827;DHT22;12094;50.822;4.376;2023-11-21T11:55:04;13.00;99.90
23827;DHT22;12094;50.822;4.376;2023-11-21T11:57:33;12.90;99.90
23827;DHT22;12094;50.822;4.376;2023-11-21T12:00:12;12.90;99.90
23827;DHT22;12094;50.822;4.376;2023-11-21T12:02:50;12.80;99.90
23827;DHT22;12094;50.822;4.376;2023-11-21T12:05:19;12.70;99.90
23827;DHT22;12094;50.822;4.376;2023-11-21T12:10:17;12.70;99.90
23827;DHT22;12094;50.822;4.376;2023-11-21T12:12:54;12.50;99.90
23827;DHT22;12094;50.822;4.376;2023-11-21T12:15:23;12.30;99.90
23827;DHT22;12094;50.822;4.376;2023-11-21T12:17:50;12.30;99.90
23827;DHT22;12094;50.822;4.376;2023-11-21T12:20:24;12.30;99.90
23827;DHT22;12094;50.822;4.376;2023-11-21T12:22:54;12.30;99.90
23827;DHT22;12094;50.822;4.376;2023-11-21T12:25:23;12.30;99.90
23827;DHT22;12094;50.822;4.376;2023-11-21T12:27:50;12.30;99.90
23827;DHT22;12094;50.822;4.376;2023-11-21T12:30:23;12.30;99.90
23827;DHT22;12094;50.822;4.376;2023-11-21T12:32:52;12.40;99.90
23827;DHT22;12094;50.822;4.376;2023-11-21T12:35:23;12.40;99.90
23827;DHT22;12094;50.822;4.376;2023-11-21T12:37:54;12.50;99.90
23827;DHT22;12094;50.822;4.376;2023-11-21T12:40:24;12.60;99.90
23827;DHT22;12094;50.822;4.376;2023-11-21T12:42:52;12.70;99.90
23827;DHT22;12094;50.822;4.376;2023-11-21T12:45:21;12.80;99.90
23827;DHT22;12094;50.822;4.376;2023-11-21T12:47:50;12.80;99.90
23827;DHT22;12094;50.822;4.376;2023-11-21T12:50:23;12.80;99.90
23827;DHT22;12094;50.822;4.376;2023-11-21T12:52:51;12.70;99.90
23827;DHT22;12094;50.822;4.376;2023-11-21T12:55:18;12.70;99.90
23827;DHT22;12094;50.822;4.376;2023-11-21T12:57:48;12.80;99.90
23827;DHT22;12094;50.822;4.376;2023-11-21T13:00:18;12.80;99.90
23827;DHT22;12094;50.822;4.376;2023-11-21T13:02:56;12.90;99.90
23827;DHT22;12094;50.822;4.376;2023-11-21T13:07:53;12.80;99.90
23827;DHT22;12094;50.822;4.376;2023-11-21T13:10:22;12.60;99.90
23827;DHT22;12094;50.822;4.376;2023-11-21T13:12:52;12.70;99.90
23827;DHT22;12094;50.822;4.376;2023-11-21T13:15:20;12.60;99.90
23827;DHT22;12094;50.822;4.376;2023-11-21T13:17:46;12.70;99.90
23827;DHT22;12094;50.822;4.376;2023-11-21T13:20:14;12.60;99.90
23827;DHT22;12094;50.822;4.376;2023-11-21T13:25:16;12.40;99.90
23827;DHT22;12094;50.822;4.376;2023-11-21T13:27:44;12.30;99.90
23827;DHT22;12094;50.822;4.376;2023-11-21T13:30:12;12.20;99.90
23827;DHT22;12094;50.822;4.376;2023-11-21T13:32:42;12.30;99.90
23827;DHT22;12094;50.822;4.376;2023-11-21T13:35:09;12.30;99.90
23827;DHT22;12094;50.822;4.376;2023-11-21T13:37:48;12.30;99.90
23827;DHT22;12094;50.822;4.376;2023-11-21T13:40:15;12.20;99.90
23827;DHT22;12094;50.822;4.376;2023-11-21T13:42:47;12.30;99.90
23827;DHT22;12094;50.822;4.376;2023-11-21T13:45:14;12.30;99.90
23827;DHT22;12094;50.822;4.376;2023-11-21T13:47:41;12.30;99.90
23827;DHT22;12094;50.822;4.376;2023-11-21T13:50:08;12.40;99.90
23827;DHT22;12094;50.822;4.376;2023-11-21T13:52:43;12.40;99.90
23827;DHT22;12094;50.822;4.376;2023-11-21T13:55:10;12.50;99.90
23827;DHT22;12094;50.822;4.376;2023-11-21T13:57:42;12.50;99.90
23827;DHT22;12094;50.822;4.376;2023-11-21T14:00:17;12.50;99.90
23827;DHT22;12094;50.822;4.376;2023-11-21T14:03:13;12.50;99.90
23827;DHT22;12094;50.822;4.376;2023-11-21T14:05:51;12.60;99.90
23827;DHT22;12094;50.822;4.376;2023-11-21T14:08:18;12.50;99.90
23827;DHT22;12094;50.822;4.376;2023-11-21T14:10:50;12.60;99.90
23827;DHT22;12094;50.822;4.376;2023-11-21T14:13:25;12.50;99.90
23827;DHT22;12094;50.822;4.376;2023-11-21T14:15:52;12.40;99.90
23827;DHT22;12094;50.822;4.376;2023-11-21T14:18:25;12.30;99.90
23827;DHT22;12094;50.822;4.376;2023-11-21T14:21:12;12.30;99.90
23827;DHT22;12094;50.822;4.376;2023-11-21T14:23:42;12.30;99.90
23827;DHT22;12094;50.822;4.376;2023-11-21T14:26:10;12.20;99.90
23827;DHT22;12094;50.822;4.376;2023-11-21T14:28:40;12.10;99.90
23827;DHT22;12094;50.822;4.376;2023-11-21T14:31:08;12.10;99.90
23827;DHT22;12094;50.822;4.376;2023-11-21T14:33:40;12.10;99.90
23827;DHT22;12094;50.822;4.376;2023-11-21T14:36:09;12.10;99.90
23827;DHT22;12094;50.822;4.376;2023-11-21T14:38:37;12.00;99.90
23827;DHT22;12094;50.822;4.376;2023-11-21T14:41:11;12.00;99.90
23827;DHT22;12094;50.822;4.376;2023-11-21T14:43:41;12.00;99.90
23827;DHT22;12094;50.822;4.376;2023-11-21T14:46:09;12.00;99.90
23827;DHT22;12094;50.822;4.376;2023-11-21T14:48:42;11.90;99.90
23827;DHT22;12094;50.822;4.376;2023-11-21T14:51:09;11.90;99.90
23827;DHT22;12094;50.822;4.376;2023-11-21T14:53:39;11.90;99.90
23827;DHT22;12094;50.822;4.376;2023-11-21T14:56:21;11.90;99.90
23827;DHT22;12094;50.822;4.376;2023-11-21T14:58:57;11.90;99.90
23827;DHT22;12094;50.822;4.376;2023-11-21T15:01:24;11.80;99.90
23827;DHT22;12094;50.822;4.376;2023-11-21T15:04:11;11.70;99.90
23827;DHT22;12094;50.822;4.376;2023-11-21T15:06:58;11.80;99.90
23827;DHT22;12094;50.822;4.376;2023-11-21T15:09:27;11.70;99.90
23827;DHT22;12094;50.822;4.376;2023-11-21T15:12:00;11.80;99.90
23827;DHT22;12094;50.822;4.376;2023-11-21T15:14:47;11.80;99.90
23827;DHT22;12094;50.822;4.376;2023-11-21T15:17:16;11.80;99.90
23827;DHT22;12094;50.822;4.376;2023-11-21T15:19:53;11.70;99.90
23827;DHT22;12094;50.822;4.376;2023-11-21T15:22:20;11.70;99.90
23827;DHT22;12094;50.822;4.376;2023-11-21T15:24:47;11.70;99.90
23827;DHT22;12094;50.822;4.376;2023-11-21T15:27:16;11.70;99.90
23827;DHT22;12094;50.822;4.376;2023-11-21T15:29:43;11.80;99.90
23827;DHT22;12094;50.822;4.376;2023-11-21T15:32:11;11.80;99.90
23827;DHT22;12094;50.822;4.376;2023-11-21T15:34:38;11.80;99.90
23827;DHT22;12094;50.822;4.376;2023-11-21T15:37:06;11.70;99.90
23827;DHT22;12094;50.822;4.376;2023-11-21T15:39:37;11.70;99.90
23827;DHT22;12094;50.822;4.376;2023-11-21T15:44:34;11.80;99.90
23827;DHT22;12094;50.822;4.376;2023-11-21T15:47:02;11.80;99.90
23827;DHT22;12094;50.822;4.376;2023-11-21T15:49:31;11.80;99.90
23827;DHT22;12094;50.822;4.376;2023-11-21T15:52:02;11.70;99.90
23827;DHT22;12094;50.822;4.376;2023-11-21T15:54:29;11.70;99.90
23827;DHT22;12094;50.822;4.376;2023-11-21T15:56:59;11.60;99.90
23827;DHT22;12094;50.822;4.376;2023-11-21T15:59:27;11.50;99.90
23827;DHT22;12094;50.822;4.376;2023-11-21T16:01:58;11.50;99.90
23827;DHT22;12094;50.822;4.376;2023-11-21T16:04:25;11.50;99.90
23827;DHT22;12094;50.822;4.376;2023-11-21T16:06:54;11.70;99.90
23827;DHT22;12094;50.822;4.376;2023-11-21T16:09:21;11.60;99.90
23827;DHT22;12094;50.822;4.376;2023-11-21T16:12:00;11.60;99.90